Time;durP1;ratioP1;P1;durP2;ratioP2;P2;SDS_P1;SDS_P2;PMS_P1;PMS_P2;Temp;Humidity;BMP_temperature;BMP_pressure;BME280_temperature;BME280_humidity;BME280_pressure;Samples;Min_cycle;Max_cycle;Signal;HPM_P1;HPM_P2
2022/08/04 00:01:39;;;;;;;;;;;19.80;99.90;;;;;;4982105;28;19942;-81
2022/08/04 00:04:12;;;;;;;;;;;19.70;99.90;;;;;;4983215;28;19929;-79
2022/08/04 00:06:45;;;;;;;;;;;19.70;99.90;;;;;;4981604;28;19945;-79
2022/08/04 00:09:29;;;;;;;;;;;19.60;99.90;;;;;;4967977;28;20045;-79
2022/08/04 00:11:56;;;;;;;;;;;19.60;99.90;;;;;;4974885;28;19930;-79
2022/08/04 00:14:23;;;;;;;;;;;19.60;99.90;;;;;;4983007;28;20024;-79
2022/08/04 00:16:51;;;;;;;;;;;19.50;99.90;;;;;;4979156;28;19930;-79
2022/08/04 00:19:20;;;;;;;;;;;19.50;99.90;;;;;;4962827;28;19929;-79
2022/08/04 00:21:53;;;;;;;;;;;19.50;99.90;;;;;;4979338;28;19926;-82
2022/08/04 00:24:24;;;;;;;;;;;19.50;99.90;;;;;;4971175;28;19925;-80
2022/08/04 00:26:52;;;;;;;;;;;19.60;99.90;;;;;;5071125;23;19930;-79
2022/08/04 00:29:17;;;;;;;;;;;19.50;99.90;;;;;;4973793;28;19929;-78
2022/08/04 00:31:43;;;;;;;;;;;19.60;99.90;;;;;;4961268;28;19925;-80
2022/08/04 00:34:12;;;;;;;;;;;19.60;99.90;;;;;;4950816;28;19926;-79
2022/08/04 00:36:57;;;;;;;;;;;19.60;99.90;;;;;;4968299;28;19998;-80
2022/08/04 00:39:23;;;;;;;;;;;19.60;99.90;;;;;;4974673;28;20031;-80
2022/08/04 00:42:07;;;;;;;;;;;19.70;99.90;;;;;;4972468;28;20332;-80
2022/08/04 00:44:52;;;;;;;;;;;19.70;99.90;;;;;;4966962;28;20512;-81
2022/08/04 00:47:27;;;;;;;;;;;19.70;99.90;;;;;;4968373;28;19926;-79
2022/08/04 00:50:08;;;;;;;;;;;19.70;99.90;;;;;;4953364;28;19980;-81
2022/08/04 00:52:48;;;;;;;;;;;19.80;99.90;;;;;;4975328;28;20520;-79
2022/08/04 00:55:17;;;;;;;;;;;19.80;99.90;;;;;;4942845;28;19925;-81
2022/08/04 00:57:52;;;;;;;;;;;19.80;99.90;;;;;;4968562;28;20037;-79
2022/08/04 01:00:18;;;;;;;;;;;19.80;99.90;;;;;;4969538;28;19933;-80
2022/08/04 01:02:50;;;;;;;;;;;19.80;99.90;;;;;;4951555;28;20402;-80
2022/08/04 01:05:37;;;;;;;;;;;19.80;99.90;;;;;;4961730;28;19953;-79
2022/08/04 01:08:03;;;;;;;;;;;19.90;99.90;;;;;;4995097;23;19930;-80
2022/08/04 01:10:51;;;;;;;;;;;19.90;99.90;;;;;;4952038;28;19937;-80
2022/08/04 01:13:28;;;;;;;;;;;19.90;99.90;;;;;;4968918;28;20079;-81
2022/08/04 01:16:04;;;;;;;;;;;19.90;99.90;;;;;;4934471;28;20506;-80
2022/08/04 01:18:43;;;;;;;;;;;19.90;99.90;;;;;;4950314;28;20460;-82
2022/08/04 01:21:15;;;;;;;;;;;19.90;99.90;;;;;;4982559;28;20336;-80
2022/08/04 01:23:56;;;;;;;;;;;19.90;99.90;;;;;;4933866;28;19957;-81
2022/08/04 01:26:37;;;;;;;;;;;19.90;99.90;;;;;;4966665;28;20008;-80
2022/08/04 01:29:04;;;;;;;;;;;19.90;99.90;;;;;;4954146;28;19929;-81
2022/08/04 01:31:33;;;;;;;;;;;19.90;99.90;;;;;;4935735;28;19981;-80
2022/08/04 01:34:02;;;;;;;;;;;19.90;99.90;;;;;;4952326;28;19926;-83
2022/08/04 01:36:29;;;;;;;;;;;19.90;99.90;;;;;;4951253;28;19968;-80
2022/08/04 01:38:55;;;;;;;;;;;19.90;99.90;;;;;;4952405;28;19936;-80
2022/08/04 01:41:21;;;;;;;;;;;19.90;99.90;;;;;;4951810;28;19926;-81
2022/08/04 01:43:46;;;;;;;;;;;19.90;99.90;;;;;;4933654;28;19930;-87
2022/08/04 01:46:14;;;;;;;;;;;19.90;99.90;;;;;;4950273;28;19934;-79
2022/08/04 01:48:41;;;;;;;;;;;19.90;99.90;;;;;;4938592;28;19930;-81
2022/08/04 01:51:08;;;;;;;;;;;19.90;99.90;;;;;;4951938;28;20100;-80
2022/08/04 01:53:35;;;;;;;;;;;19.90;99.90;;;;;;4961917;28;19941;-80
2022/08/04 01:56:02;;;;;;;;;;;19.90;99.90;;;;;;4963046;28;21931;-80
2022/08/04 01:58:29;;;;;;;;;;;19.80;99.90;;;;;;4953128;28;19926;-80
2022/08/04 02:00:56;;;;;;;;;;;19.90;99.90;;;;;;4967273;28;19976;-79
2022/08/04 02:03:22;;;;;;;;;;;19.90;99.90;;;;;;4951424;28;19930;-80
2022/08/04 02:08:57;;;;;;;;;;;19.80;99.90;;;;;;5028201;23;19988;-80
2022/08/04 02:11:23;;;;;;;;;;;19.80;99.90;;;;;;4947145;28;19941;-80
2022/08/04 02:13:56;;;;;;;;;;;19.80;99.90;;;;;;4957126;28;20396;-80
2022/08/04 02:16:41;;;;;;;;;;;19.80;99.90;;;;;;4952791;28;19926;-80
2022/08/04 02:19:07;;;;;;;;;;;19.80;99.90;;;;;;4938528;28;20187;-80
2022/08/04 02:21:34;;;;;;;;;;;19.80;99.90;;;;;;4938413;28;20008;-80
2022/08/04 02:24:01;;;;;;;;;;;19.80;99.90;;;;;;4949859;28;19956;-80
2022/08/04 02:26:28;;;;;;;;;;;19.80;99.90;;;;;;4956701;28;19930;-80
2022/08/04 02:29:16;;;;;;;;;;;19.80;99.90;;;;;;4947973;28;19926;-79
2022/08/04 02:31:51;;;;;;;;;;;19.80;99.90;;;;;;4970280;28;19934;-80
2022/08/04 02:34:26;;;;;;;;;;;19.80;99.90;;;;;;4961375;28;20407;-79
2022/08/04 02:36:53;;;;;;;;;;;19.80;99.90;;;;;;4958250;28;19926;-81
2022/08/04 02:39:20;;;;;;;;;;;19.80;99.90;;;;;;4961036;28;19926;-79
2022/08/04 02:41:46;;;;;;;;;;;19.70;99.90;;;;;;4957688;28;20303;-80
2022/08/04 02:44:17;;;;;;;;;;;19.70;99.90;;;;;;4953855;28;19930;-78
2022/08/04 02:46:46;;;;;;;;;;;19.70;99.90;;;;;;4957423;28;19937;-79
2022/08/04 02:49:13;;;;;;;;;;;19.70;99.90;;;;;;4960109;28;19926;-79
2022/08/04 02:51:43;;;;;;;;;;;19.70;99.90;;;;;;4937198;28;19977;-79
2022/08/04 02:54:09;;;;;;;;;;;19.70;99.90;;;;;;4954033;28;20376;-80
2022/08/04 02:56:36;;;;;;;;;;;19.60;99.90;;;;;;4938050;28;19933;-79
2022/08/04 02:59:06;;;;;;;;;;;19.60;99.90;;;;;;4942402;28;19981;-79
2022/08/04 03:01:33;;;;;;;;;;;19.50;99.90;;;;;;4937352;28;19930;-79
2022/08/04 03:04:20;;;;;;;;;;;19.50;99.90;;;;;;5087254;23;20101;-79
2022/08/04 03:06:52;;;;;;;;;;;19.40;99.90;;;;;;4953576;28;19941;-79
2022/08/04 03:09:18;;;;;;;;;;;;;;;;;;4930600;28;19929;-79
2022/08/04 03:11:43;;;;;;;;;;;19.40;99.90;;;;;;4961302;28;20399;-79
2022/08/04 03:14:15;;;;;;;;;;;19.30;99.90;;;;;;4943456;28;19930;-82
2022/08/04 03:16:53;;;;;;;;;;;19.30;99.90;;;;;;4955515;28;19957;-83
2022/08/04 03:19:35;;;;;;;;;;;19.30;99.90;;;;;;4974714;28;19937;-82
2022/08/04 03:22:16;;;;;;;;;;;19.30;99.90;;;;;;4955938;28;19926;-80
2022/08/04 03:24:46;;;;;;;;;;;19.30;99.90;;;;;;4961804;28;19960;-81
2022/08/04 03:27:38;;;;;;;;;;;19.30;99.90;;;;;;4949490;28;19930;-80
2022/08/04 03:30:06;;;;;;;;;;;19.30;99.90;;;;;;4872031;29;19938;-80
2022/08/04 03:32:49;;;;;;;;;;;19.30;99.90;;;;;;4893908;29;20102;-80
2022/08/04 03:35:33;;;;;;;;;;;19.30;99.90;;;;;;5167687;23;20007;-79
2022/08/04 03:37:59;;;;;;;;;;;19.30;99.90;;;;;;4963116;28;19937;-80
2022/08/04 03:40:31;;;;;;;;;;;19.30;99.90;;;;;;4955464;28;19930;-80
2022/08/04 03:43:15;;;;;;;;;;;19.30;99.90;;;;;;4951079;28;20048;-79
2022/08/04 03:46:00;;;;;;;;;;;19.30;99.90;;;;;;4954837;28;19992;-80
2022/08/04 03:48:45;;;;;;;;;;;19.30;99.90;;;;;;4952093;28;20455;-80
2022/08/04 03:53:58;;;;;;;;;;;19.30;99.90;;;;;;4965529;28;20289;-81
2022/08/04 03:56:42;;;;;;;;;;;19.30;99.90;;;;;;4958798;28;20355;-81
2022/08/04 03:59:17;;;;;;;;;;;19.30;99.90;;;;;;4968593;28;20020;-80
2022/08/04 04:02:11;;;;;;;;;;;19.30;99.90;;;;;;4946532;28;19938;-79
2022/08/04 04:04:37;;;;;;;;;;;19.30;99.90;;;;;;4953978;28;19973;-79
2022/08/04 04:07:14;;;;;;;;;;;19.30;99.90;;;;;;4932387;29;19972;-82
2022/08/04 04:10:02;;;;;;;;;;;19.30;99.90;;;;;;4953925;28;20060;-80
2022/08/04 04:12:35;;;;;;;;;;;19.30;99.90;;;;;;4959820;28;19940;-81
2022/08/04 04:18:45;;;;;;;;;;;19.20;99.90;;;;;;4973613;28;19969;-82
2022/08/04 04:21:34;;;;;;;;;;;19.30;99.90;;;;;;5015315;23;19929;-81
2022/08/04 04:24:00;;;;;;;;;;;19.20;99.90;;;;;;4954916;28;20032;-82
2022/08/04 04:26:41;;;;;;;;;;;19.20;99.90;;;;;;4968730;28;19942;-81
2022/08/04 04:29:27;;;;;;;;;;;19.30;99.90;;;;;;4952476;28;19937;-79
2022/08/04 04:31:56;;;;;;;;;;;19.20;99.90;;;;;;4952791;28;19969;-83
2022/08/04 04:34:28;;;;;;;;;;;19.20;99.90;;;;;;4953965;28;19954;-83
2022/08/04 04:37:13;;;;;;;;;;;19.20;99.90;;;;;;4975018;28;20422;-80
2022/08/04 04:39:51;;;;;;;;;;;19.20;99.90;;;;;;4938181;28;19937;-81
2022/08/04 04:42:36;;;;;;;;;;;19.20;99.90;;;;;;4983548;28;19957;-82
2022/08/04 04:45:11;;;;;;;;;;;19.20;99.90;;;;;;4969205;28;19978;-84
2022/08/04 04:47:57;;;;;;;;;;;19.20;99.90;;;;;;4997443;23;19932;-82
2022/08/04 04:50:48;;;;;;;;;;;19.20;99.90;;;;;;4959028;28;19949;-81
2022/08/04 04:57:00;;;;;;;;;;;19.20;99.90;;;;;;4955502;28;19930;-83
2022/08/04 04:59:32;;;;;;;;;;;19.30;99.90;;;;;;4962730;28;19932;-81
2022/08/04 05:02:19;;;;;;;;;;;19.30;99.90;;;;;;4962675;28;19934;-82
2022/08/04 05:05:06;;;;;;;;;;;19.30;99.90;;;;;;4939295;28;19940;-80
2022/08/04 05:07:49;;;;;;;;;;;19.40;99.90;;;;;;4936620;28;20288;-83
2022/08/04 05:10:33;;;;;;;;;;;19.50;99.90;;;;;;4951009;28;19938;-80
2022/08/04 05:13:08;;;;;;;;;;;19.60;99.90;;;;;;4948313;28;19984;-80
2022/08/04 05:15:36;;;;;;;;;;;19.70;99.90;;;;;;4951035;28;19933;-80
2022/08/04 05:18:03;;;;;;;;;;;19.70;99.90;;;;;;4952497;28;20392;-82
2022/08/04 05:20:32;;;;;;;;;;;19.80;99.90;;;;;;4947363;28;19934;-81
2022/08/04 05:23:23;;;;;;;;;;;19.80;99.90;;;;;;4940530;28;20313;-79
2022/08/04 05:25:49;;;;;;;;;;;19.90;99.90;;;;;;4953124;28;19949;-81
2022/08/04 05:28:17;;;;;;;;;;;20.00;99.90;;;;;;4956236;28;19930;-80
2022/08/04 05:30:48;;;;;;;;;;;20.00;99.90;;;;;;4959663;28;19926;-80
2022/08/04 05:33:17;;;;;;;;;;;20.10;99.90;;;;;;4960509;28;20551;-81
2022/08/04 05:35:44;;;;;;;;;;;20.10;99.90;;;;;;4944618;28;19956;-81
2022/08/04 05:38:17;;;;;;;;;;;20.20;99.90;;;;;;4938267;28;20013;-82
2022/08/04 05:40:43;;;;;;;;;;;20.30;99.90;;;;;;4929485;29;20013;-80
2022/08/04 05:43:11;;;;;;;;;;;20.40;99.90;;;;;;4957380;28;19930;-81
2022/08/04 05:45:37;;;;;;;;;;;20.40;99.90;;;;;;4948393;28;20426;-81
2022/08/04 05:48:06;;;;;;;;;;;20.50;99.90;;;;;;4948312;28;19933;-81
2022/08/04 05:50:32;;;;;;;;;;;20.60;99.90;;;;;;4948860;28;19933;-81
2022/08/04 05:53:00;;;;;;;;;;;20.60;99.90;;;;;;4939506;28;19925;-79
2022/08/04 05:55:28;;;;;;;;;;;20.70;99.90;;;;;;4935381;28;20447;-82
2022/08/04 05:57:54;;;;;;;;;;;20.80;99.90;;;;;;4942593;28;19922;-80
2022/08/04 06:00:20;;;;;;;;;;;20.90;99.90;;;;;;4945049;28;19941;-80
2022/08/04 06:02:47;;;;;;;;;;;20.90;99.90;;;;;;4935394;28;19942;-83
2022/08/04 06:05:14;;;;;;;;;;;21.00;99.90;;;;;;4953178;28;20363;-80
2022/08/04 06:07:40;;;;;;;;;;;21.00;99.90;;;;;;4936793;28;20700;-81
2022/08/04 06:10:07;;;;;;;;;;;21.10;99.90;;;;;;4932797;28;19977;-82
2022/08/04 06:12:41;;;;;;;;;;;21.20;99.90;;;;;;4938046;28;19984;-82
2022/08/04 06:15:12;;;;;;;;;;;21.30;99.90;;;;;;4935431;28;20272;-82
2022/08/04 06:18:05;;;;;;;;;;;21.60;99.90;;;;;;4963096;28;19926;-80
2022/08/04 06:20:35;;;;;;;;;;;21.90;99.90;;;;;;5002687;23;20253;-81
2022/08/04 06:23:03;;;;;;;;;;;22.10;99.90;;;;;;5082007;23;19954;-82
2022/08/04 06:25:57;;;;;;;;;;;22.30;99.90;;;;;;4957780;28;19929;-81
2022/08/04 06:31:57;;;;;;;;;;;22.60;99.90;;;;;;4969048;28;19933;-80
2022/08/04 06:34:34;;;;;;;;;;;22.70;99.90;;;;;;4951217;28;19926;-81
2022/08/04 06:37:01;;;;;;;;;;;22.80;99.90;;;;;;4953069;28;20288;-83
2022/08/04 06:39:33;;;;;;;;;;;22.90;99.90;;;;;;4964958;28;19937;-80
2022/08/04 06:42:00;;;;;;;;;;;22.90;99.90;;;;;;4969368;28;20052;-81
2022/08/04 06:44:27;;;;;;;;;;;22.90;99.90;;;;;;4956466;28;19930;-83
2022/08/04 06:46:53;;;;;;;;;;;22.90;99.90;;;;;;4954850;28;19929;-80
2022/08/04 06:49:19;;;;;;;;;;;23.00;99.90;;;;;;4955561;28;19926;-83
2022/08/04 06:51:47;;;;;;;;;;;23.10;99.90;;;;;;4961393;28;20350;-79
2022/08/04 06:54:14;;;;;;;;;;;23.20;99.90;;;;;;4991073;28;20013;-81
2022/08/04 06:56:43;;;;;;;;;;;23.20;99.90;;;;;;4954308;28;20457;-81
2022/08/04 06:59:14;;;;;;;;;;;23.30;99.90;;;;;;4957571;28;19932;-80
2022/08/04 07:01:40;;;;;;;;;;;23.30;99.90;;;;;;4973970;28;19937;-83
2022/08/04 07:04:44;;;;;;;;;;;23.30;99.90;;;;;;4993842;28;19932;-80
2022/08/04 07:07:35;;;;;;;;;;;23.30;99.90;;;;;;4982083;28;19921;-80
2022/08/04 07:10:02;;;;;;;;;;;23.40;99.90;;;;;;4952819;28;19949;-83
2022/08/04 07:12:31;;;;;;;;;;;23.50;99.90;;;;;;4969586;28;20546;-83
2022/08/04 07:15:11;;;;;;;;;;;23.70;99.90;;;;;;4984618;28;20407;-80
2022/08/04 07:17:38;;;;;;;;;;;24.00;99.90;;;;;;4988847;28;20032;-80
2022/08/04 07:20:04;;;;;;;;;;;24.50;99.90;;;;;;4976008;28;20006;-82
2022/08/04 07:22:30;;;;;;;;;;;25.40;99.90;;;;;;4956406;28;19936;-81
2022/08/04 07:24:57;;;;;;;;;;;26.30;99.90;;;;;;4963422;28;19926;-80
2022/08/04 07:27:25;;;;;;;;;;;27.20;99.90;;;;;;4959945;28;19926;-81
2022/08/04 07:29:52;;;;;;;;;;;28.00;99.90;;;;;;4972408;28;19988;-80
2022/08/04 07:32:21;;;;;;;;;;;28.70;99.90;;;;;;4959307;28;19995;-86
2022/08/04 07:34:51;;;;;;;;;;;28.70;99.90;;;;;;4981620;28;19926;-80
2022/08/04 07:37:17;;;;;;;;;;;28.50;99.90;;;;;;4976163;28;20017;-83
2022/08/04 07:39:43;;;;;;;;;;;28.60;99.90;;;;;;4957674;28;19925;-81
2022/08/04 07:42:17;;;;;;;;;;;28.40;99.90;;;;;;4962535;28;20041;-80
2022/08/04 07:44:44;;;;;;;;;;;28.70;99.90;;;;;;4983444;28;19926;-82
2022/08/04 07:47:10;;;;;;;;;;;28.60;99.90;;;;;;4974378;28;19980;-81
2022/08/04 07:49:36;;;;;;;;;;;28.40;99.90;;;;;;4976555;28;19969;-81
2022/08/04 07:52:03;;;;;;;;;;;28.00;99.90;;;;;;4972293;28;19988;-81
2022/08/04 07:54:29;;;;;;;;;;;27.80;99.90;;;;;;4964977;28;19926;-80
2022/08/04 07:56:56;;;;;;;;;;;27.60;99.90;;;;;;4970744;28;20572;-79
2022/08/04 07:59:24;;;;;;;;;;;27.70;99.90;;;;;;4990002;28;19931;-78
2022/08/04 08:01:51;;;;;;;;;;;28.20;99.90;;;;;;4955979;28;19949;-80
2022/08/04 08:04:18;;;;;;;;;;;28.90;99.90;;;;;;4972887;28;19934;-81
2022/08/04 08:06:44;;;;;;;;;;;29.40;99.90;;;;;;4942510;28;20523;-81
2022/08/04 08:09:11;;;;;;;;;;;29.90;99.90;;;;;;4956014;28;19929;-81
2022/08/04 08:11:37;;;;;;;;;;;30.20;99.90;;;;;;4972090;28;19936;-80
2022/08/04 08:14:03;;;;;;;;;;;30.50;99.90;;;;;;4962582;28;19930;-81
2022/08/04 08:16:32;;;;;;;;;;;30.80;99.90;;;;;;4956746;28;20366;-81
2022/08/04 08:18:59;;;;;;;;;;;31.00;99.90;;;;;;4961584;28;19937;-80
2022/08/04 08:21:28;;;;;;;;;;;31.20;99.90;;;;;;4990000;28;19964;-81
2022/08/04 08:23:54;;;;;;;;;;;31.60;99.90;;;;;;4972252;28;20414;-81
2022/08/04 08:26:20;;;;;;;;;;;31.70;99.90;;;;;;4976148;28;19965;-82
2022/08/04 08:28:58;;;;;;;;;;;31.50;99.90;;;;;;4959414;28;19926;-83
2022/08/04 08:31:24;;;;;;;;;;;31.10;99.90;;;;;;4974068;28;19926;-82
2022/08/04 08:33:51;;;;;;;;;;;30.60;99.90;;;;;;4967447;28;19977;-81
2022/08/04 08:36:19;;;;;;;;;;;30.30;99.90;;;;;;4989256;28;19969;-81
2022/08/04 08:38:54;;;;;;;;;;;29.80;99.90;;;;;;4964621;28;20416;-83
2022/08/04 08:41:40;;;;;;;;;;;29.40;99.90;;;;;;4968529;23;19956;-82
2022/08/04 08:44:32;;;;;;;;;;;29.10;99.90;;;;;;4962054;28;20006;-82
2022/08/04 08:47:03;;;;;;;;;;;28.80;99.90;;;;;;4972217;28;19929;-82
2022/08/04 08:49:50;;;;;;;;;;;29.10;99.90;;;;;;4988415;28;19929;-82
2022/08/04 08:52:31;;;;;;;;;;;29.40;99.90;;;;;;4963641;28;19933;-82
2022/08/04 08:55:34;;;;;;;;;;;29.60;99.90;;;;;;4971902;28;20077;-82
2022/08/04 08:58:31;;;;;;;;;;;29.80;99.90;;;;;;4910497;29;20021;-82
2022/08/04 09:01:29;;;;;;;;;;;30.00;99.90;;;;;;4991902;28;19926;-82
2022/08/04 09:04:07;;;;;;;;;;;30.10;99.90;;;;;;4941410;28;20399;-82
2022/08/04 09:06:49;;;;;;;;;;;30.40;99.90;;;;;;4996130;28;19926;-82
2022/08/04 09:09:34;;;;;;;;;;;30.10;99.90;;;;;;4994066;28;19932;-83
2022/08/04 09:12:11;;;;;;;;;;;29.50;99.90;;;;;;5000473;28;19933;-83
2022/08/04 09:14:40;;;;;;;;;;;29.10;99.90;;;;;;4992627;28;19926;-84
2022/08/04 09:17:12;;;;;;;;;;;28.70;99.90;;;;;;4969173;28;20000;-83
2022/08/04 09:20:01;;;;;;;;;;;28.40;99.90;;;;;;4981728;28;20020;-84
2022/08/04 09:22:37;;;;;;;;;;;28.30;99.90;;;;;;4970139;28;19930;-84
2022/08/04 09:25:19;;;;;;;;;;;28.20;99.90;;;;;;4972461;28;20000;-84
2022/08/04 09:27:50;;;;;;;;;;;28.20;99.90;;;;;;4982026;28;19930;-82
2022/08/04 09:30:18;;;;;;;;;;;28.10;99.90;;;;;;4963838;28;19930;-82
2022/08/04 09:33:03;;;;;;;;;;;28.10;99.90;;;;;;4991832;28;19926;-84
2022/08/04 09:35:44;;;;;;;;;;;28.20;99.90;;;;;;4965458;28;20107;-83
2022/08/04 09:38:41;;;;;;;;;;;28.40;99.90;;;;;;4967363;28;19930;-83
2022/08/04 09:41:10;;;;;;;;;;;28.50;99.90;;;;;;4976754;28;20380;-84
2022/08/04 09:43:45;;;;;;;;;;;28.50;99.90;;;;;;4970361;28;19929;-84
2022/08/04 09:46:24;;;;;;;;;;;28.60;99.90;;;;;;4981215;28;20396;-81
2022/08/04 09:49:16;;;;;;;;;;;28.80;99.90;;;;;;4980883;28;19929;-80
2022/08/04 09:51:49;;;;;;;;;;;28.90;99.90;;;;;;4991822;28;19926;-81
2022/08/04 09:54:34;;;;;;;;;;;29.20;99.90;;;;;;4989165;28;19929;-81
2022/08/04 09:57:18;;;;;;;;;;;29.40;99.90;;;;;;5016250;28;19949;-81
2022/08/04 10:00:04;;;;;;;;;;;29.50;99.90;;;;;;4972762;28;19929;-82
2022/08/04 10:02:37;;;;;;;;;;;29.50;99.90;;;;;;4983389;28;19999;-82
2022/08/04 10:05:24;;;;;;;;;;;29.10;99.90;;;;;;4967035;28;19972;-81
2022/08/04 10:08:14;;;;;;;;;;;28.90;99.90;;;;;;4983590;28;19936;-81
2022/08/04 10:10:49;;;;;;;;;;;28.80;99.90;;;;;;4964592;28;20260;-82
2022/08/04 10:13:24;;;;;;;;;;;28.90;99.90;;;;;;5138062;23;19979;-84
2022/08/04 10:16:08;;;;;;;;;;;29.10;99.90;;;;;;4937359;28;19926;-84
2022/08/04 10:18:43;;;;;;;;;;;29.20;99.90;;;;;;4944288;28;20111;-82
2022/08/04 10:21:14;;;;;;;;;;;29.20;99.90;;;;;;4943416;28;19969;-81
2022/08/04 10:23:58;;;;;;;;;;;29.20;99.90;;;;;;4947134;28;19934;-81
2022/08/04 10:26:34;;;;;;;;;;;29.20;99.90;;;;;;4960883;28;19926;-82
2022/08/04 10:29:19;;;;;;;;;;;29.10;99.90;;;;;;4948980;23;19998;-82
2022/08/04 10:32:00;;;;;;;;;;;29.00;99.90;;;;;;4968688;28;19929;-82
2022/08/04 10:34:57;;;;;;;;;;;28.80;99.90;;;;;;4955009;28;19922;-81
2022/08/04 10:37:26;;;;;;;;;;;28.70;99.90;;;;;;4969714;28;20075;-83
2022/08/04 10:43:14;;;;;;;;;;;28.40;99.90;;;;;;4976738;28;20024;-81
2022/08/04 10:45:44;;;;;;;;;;;28.30;99.90;;;;;;4925957;29;20037;-82
2022/08/04 10:48:25;;;;;;;;;;;28.40;99.90;;;;;;4913544;29;19978;-80
2022/08/04 10:51:15;;;;;;;;;;;28.60;99.90;;;;;;4951136;28;20075;-82
2022/08/04 10:53:45;;;;;;;;;;;28.40;99.90;;;;;;4973929;28;19965;-83
2022/08/04 10:56:21;;;;;;;;;;;28.20;99.90;;;;;;4972540;28;19936;-81
2022/08/04 10:58:53;;;;;;;;;;;28.10;99.90;;;;;;4973087;28;19929;-84
2022/08/04 11:01:29;;;;;;;;;;;28.00;99.90;;;;;;4973859;28;19929;-82
2022/08/04 11:04:02;;;;;;;;;;;27.80;99.90;;;;;;4968633;28;19944;-80
2022/08/04 11:06:29;;;;;;;;;;;27.70;99.90;;;;;;4955802;28;20553;-80
2022/08/04 11:08:56;;;;;;;;;;;27.90;99.90;;;;;;4976384;28;19930;-80
2022/08/04 11:11:43;;;;;;;;;;;27.80;99.90;;;;;;4973743;28;19928;-81
2022/08/04 11:17:41;;;;;;;;;;;27.70;99.90;;;;;;4968687;28;19926;-84
2022/08/04 11:20:26;;;;;;;;;;;27.60;99.90;;;;;;4973494;28;20029;-82
2022/08/04 11:23:07;;;;;;;;;;;27.60;99.90;;;;;;4954038;28;19925;-82
2022/08/04 11:25:57;;;;;;;;;;;27.40;99.90;;;;;;4960533;28;19926;-81
2022/08/04 11:38:45;;;;;;;;;;;27.00;99.90;;;;;;4971752;28;19988;-83
2022/08/04 11:41:18;;;;;;;;;;;26.90;99.90;;;;;;4947770;28;19930;-83
2022/08/04 11:43:57;;;;;;;;;;;26.90;99.90;;;;;;4958637;28;19926;-83
2022/08/04 11:46:47;;;;;;;;;;;26.90;99.90;;;;;;4958583;28;20468;-82
2022/08/04 11:49:32;;;;;;;;;;;26.90;99.90;;;;;;4952982;28;19937;-81
2022/08/04 11:51:59;;;;;;;;;;;26.90;99.90;;;;;;4946041;28;19952;-82
2022/08/04 11:54:32;;;;;;;;;;;26.80;99.90;;;;;;4962638;28;19969;-82
2022/08/04 11:57:01;;;;;;;;;;;26.90;99.90;;;;;;4972108;28;20024;-83
2022/08/04 11:59:28;;;;;;;;;;;26.90;99.90;;;;;;4949578;28;19926;-82
2022/08/04 12:01:56;;;;;;;;;;;27.00;99.90;;;;;;4944227;28;19927;-81
2022/08/04 12:04:46;;;;;;;;;;;26.90;99.90;;;;;;4963250;28;19930;-84
2022/08/04 12:07:21;;;;;;;;;;;26.90;99.90;;;;;;4960624;28;20065;-82
2022/08/04 12:10:12;;;;;;;;;;;26.70;99.90;;;;;;4952184;28;20024;-83
2022/08/04 12:12:53;;;;;;;;;;;26.70;99.90;;;;;;5094679;23;19956;-83
2022/08/04 12:15:28;;;;;;;;;;;26.70;99.90;;;;;;4962518;28;20746;-83
2022/08/04 12:18:12;;;;;;;;;;;26.70;99.90;;;;;;4950176;28;19929;-82
2022/08/04 12:20:41;;;;;;;;;;;26.50;99.90;;;;;;4944022;28;19926;-82
2022/08/04 12:23:22;;;;;;;;;;;26.30;99.90;;;;;;4941255;28;19929;-81
2022/08/04 12:25:49;;;;;;;;;;;26.20;99.90;;;;;;4972793;28;19996;-82
2022/08/04 12:28:29;;;;;;;;;;;26.00;99.90;;;;;;4947578;28;19930;-82
2022/08/04 12:30:59;;;;;;;;;;;25.90;99.90;;;;;;4954693;28;19929;-82
2022/08/04 12:33:38;;;;;;;;;;;25.80;99.90;;;;;;4945604;28;20695;-82
2022/08/04 12:36:14;;;;;;;;;;;25.60;99.90;;;;;;4955642;28;19930;-81
2022/08/04 12:38:45;;;;;;;;;;;25.50;99.90;;;;;;4969522;28;20032;-83
2022/08/04 12:41:13;;;;;;;;;;;25.50;99.90;;;;;;4950703;28;19937;-80
2022/08/04 12:43:46;;;;;;;;;;;25.50;99.90;;;;;;4945823;28;19932;-81
2022/08/04 12:46:19;;;;;;;;;;;25.40;99.90;;;;;;4967239;28;19926;-81
2022/08/04 12:48:46;;;;;;;;;;;25.20;99.90;;;;;;4965900;28;19990;-81
2022/08/04 12:51:12;;;;;;;;;;;25.10;99.90;;;;;;4963848;28;19941;-82
2022/08/04 12:53:39;;;;;;;;;;;25.10;99.90;;;;;;4951713;28;20176;-82
2022/08/04 12:56:07;;;;;;;;;;;25.10;99.90;;;;;;4974099;28;20001;-81
2022/08/04 12:58:36;;;;;;;;;;;25.10;99.90;;;;;;4963589;28;20375;-81
2022/08/04 13:01:06;;;;;;;;;;;25.10;99.90;;;;;;4990544;28;19926;-82
2022/08/04 13:03:38;;;;;;;;;;;25.20;99.90;;;;;;4982933;28;19961;-85
2022/08/04 13:06:10;;;;;;;;;;;25.20;99.90;;;;;;4948760;28;20048;-83
2022/08/04 13:08:40;;;;;;;;;;;25.20;99.90;;;;;;4957338;28;20347;-81
2022/08/04 13:11:07;;;;;;;;;;;25.20;99.90;;;;;;4951804;28;19930;-81
2022/08/04 13:13:35;;;;;;;;;;;25.20;99.90;;;;;;4953332;28;19942;-83
2022/08/04 13:16:02;;;;;;;;;;;25.20;99.90;;;;;;4966245;28;19938;-81
2022/08/04 13:18:31;;;;;;;;;;;25.20;99.90;;;;;;4963751;28;19926;-81
2022/08/04 13:21:18;;;;;;;;;;;25.30;99.90;;;;;;4969133;28;19929;-81
2022/08/04 13:24:14;;;;;;;;;;;25.30;99.90;;;;;;4987371;28;20012;-81
2022/08/04 13:26:52;;;;;;;;;;;25.30;99.90;;;;;;4953436;28;19933;-82
2022/08/04 13:29:34;;;;;;;;;;;25.30;99.90;;;;;;4977495;28;20016;-80
2022/08/04 13:32:03;;;;;;;;;;;25.30;99.90;;;;;;4980077;28;19980;-80
2022/08/04 13:34:30;;;;;;;;;;;25.40;99.90;;;;;;4952788;28;19926;-80
2022/08/04 13:37:04;;;;;;;;;;;25.40;99.90;;;;;;4968350;28;19984;-82
2022/08/04 13:39:31;;;;;;;;;;;25.40;99.90;;;;;;4965698;28;20002;-82
2022/08/04 13:42:00;;;;;;;;;;;25.50;99.90;;;;;;4967935;28;19948;-80
2022/08/04 13:44:40;;;;;;;;;;;25.50;99.90;;;;;;4964983;28;19933;-82
2022/08/04 13:47:14;;;;;;;;;;;25.70;99.90;;;;;;4968271;28;19933;-80
2022/08/04 13:49:40;;;;;;;;;;;25.80;99.90;;;;;;5120223;23;19913;-80
2022/08/04 13:52:11;;;;;;;;;;;25.80;99.90;;;;;;4998257;28;19926;-81
2022/08/04 13:54:42;;;;;;;;;;;25.80;99.90;;;;;;4981196;28;19930;-80
2022/08/04 13:57:28;;;;;;;;;;;25.90;99.90;;;;;;4975205;28;19925;-82
2022/08/04 14:00:01;;;;;;;;;;;25.90;99.90;;;;;;4991173;28;19929;-81
2022/08/04 14:02:32;;;;;;;;;;;25.90;99.90;;;;;;4975833;28;19980;-81
2022/08/04 14:05:03;;;;;;;;;;;25.90;99.90;;;;;;4979067;28;19936;-82
2022/08/04 14:07:30;;;;;;;;;;;25.90;99.90;;;;;;4990458;28;19936;-82
2022/08/04 14:09:56;;;;;;;;;;;25.90;99.90;;;;;;5000060;28;20522;-80
2022/08/04 14:12:53;;;;;;;;;;;25.90;99.90;;;;;;5444316;23;19937;-81
2022/08/04 14:15:33;;;;;;;;;;;26.00;99.90;;;;;;4919476;28;20031;-82
2022/08/04 14:18:31;;;;;;;;;;;25.90;99.90;;;;;;4970819;28;19965;-83
2022/08/04 14:21:04;;;;;;;;;;;25.80;99.90;;;;;;4971894;28;20684;-81
2022/08/04 14:24:18;;;;;;;;;;;25.80;99.90;;;;;;4955246;28;19930;-87
2022/08/04 14:26:57;;;;;;;;;;;25.80;99.90;;;;;;4911999;29;20013;-82
2022/08/04 14:29:23;;;;;;;;;;;25.50;99.90;;;;;;4918153;29;20585;-83
2022/08/04 14:32:14;;;;;;;;;;;25.40;99.90;;;;;;4898613;29;20021;-81
2022/08/04 14:35:24;;;;;;;;;;;25.30;99.90;;;;;;4911432;29;19926;-84
2022/08/04 14:38:09;;;;;;;;;;;25.30;99.90;;;;;;4858656;29;20063;-82
2022/08/04 14:43:49;;;;;;;;;;;25.00;99.90;;;;;;5015383;23;19926;-82
2022/08/04 14:46:18;;;;;;;;;;;24.80;99.90;;;;;;4971411;28;20017;-81
2022/08/04 14:49:05;;;;;;;;;;;24.70;99.90;;;;;;4972161;28;20907;-82
2022/08/04 14:51:35;;;;;;;;;;;24.60;99.90;;;;;;4990822;28;19932;-84
2022/08/04 14:54:07;;;;;;;;;;;24.50;99.90;;;;;;4976710;28;19926;-86
2022/08/04 14:56:52;;;;;;;;;;;24.50;99.90;;;;;;4980438;28;19933;-83
2022/08/04 14:59:41;;;;;;;;;;;24.40;99.90;;;;;;4985246;28;19930;-83
2022/08/04 15:02:08;;;;;;;;;;;24.30;99.90;;;;;;4973030;28;19925;-82
2022/08/04 15:04:41;;;;;;;;;;;24.30;99.90;;;;;;4958799;28;19965;-85
2022/08/04 15:07:10;;;;;;;;;;;24.40;99.90;;;;;;4959405;28;19932;-89
2022/08/04 15:09:36;;;;;;;;;;;24.20;99.90;;;;;;4951867;28;19961;-82
2022/08/04 15:12:03;;;;;;;;;;;24.10;99.90;;;;;;4945590;28;19968;-85
2022/08/04 15:14:35;;;;;;;;;;;24.00;99.90;;;;;;4954513;28;20404;-86
2022/08/04 15:17:02;;;;;;;;;;;23.90;99.90;;;;;;4977050;28;19930;-84
2022/08/04 15:19:28;;;;;;;;;;;23.90;99.90;;;;;;4961124;28;19935;-84
2022/08/04 15:21:54;;;;;;;;;;;23.80;99.90;;;;;;4982543;28;20443;-83
2022/08/04 15:24:40;;;;;;;;;;;23.70;99.90;;;;;;4957979;28;19936;-84
2022/08/04 15:27:18;;;;;;;;;;;23.70;99.90;;;;;;4975779;28;19976;-81
2022/08/04 15:33:17;;;;;;;;;;;23.50;99.90;;;;;;4966906;28;19952;-83
2022/08/04 15:39:08;;;;;;;;;;;23.40;99.90;;;;;;4883555;29;20298;-83
2022/08/04 15:41:57;;;;;;;;;;;23.30;99.90;;;;;;4881250;29;19931;-83
2022/08/04 15:44:36;;;;;;;;;;;23.40;99.90;;;;;;4931720;29;19926;-84